Time;durP1;ratioP1;P1;durP2;ratioP2;P2;SDS_P1;SDS_P2;PMS_P1;PMS_P2;Temp;Humidity;BMP_temperature;BMP_pressure;BME280_temperature;BME280_humidity;BME280_pressure;Samples;Min_cycle;Max_cycle;Signal;HPM_P1;HPM_P2
2022/03/06 00:01:19;;;;;;;2.97;2.20;;;;;;;;;;5072246;28;20447;-61
2022/03/06 00:03:45;;;;;;;0.25;0.25;;;;;;;;;;5074758;28;20027;-61
2022/03/06 00:06:13;;;;;;;1.02;0.98;;;;;;;;;;5074656;28;20454;-62
2022/03/06 00:08:40;;;;;;;0.60;0.60;;;;;;;;;;5074603;28;20438;-61
2022/03/06 00:11:06;;;;;;;0.38;0.38;;;;;;;;;;5074451;28;20044;-60
2022/03/06 00:13:33;;;;;;;0.10;0.10;;;;;;;;;;5056657;28;20082;-60
2022/03/06 00:15:59;;;;;;;0.13;0.13;;;;;;;;;;5039832;28;20033;-61
2022/03/06 00:18:25;;;;;;;0.10;0.10;;;;;;;;;;5039919;28;20082;-60
2022/03/06 00:20:50;;;;;;;0.10;0.10;;;;;;;;;;5056451;28;20033;-60
2022/03/06 00:23:16;;;;;;;0.55;0.55;;;;;;;;;;5074274;28;20029;-60
2022/03/06 00:25:41;;;;;;;0.10;0.10;;;;;;;;;;5074041;28;20032;-60
2022/03/06 00:28:07;;;;;;;0.63;0.63;;;;;;;;;;5074267;28;20028;-60
2022/03/06 00:30:32;;;;;;;0.10;0.10;;;;;;;;;;5074089;28;20358;-60
2022/03/06 00:32:58;;;;;;;0.10;0.10;;;;;;;;;;5039437;28;20035;-60
2022/03/06 00:35:24;;;;;;;0.10;0.10;;;;;;;;;;5074197;28;20495;-60
2022/03/06 00:37:50;;;;;;;0.10;0.10;;;;;;;;;;5074156;28;20469;-60
2022/03/06 00:40:15;;;;;;;0.73;0.52;;;;;;;;;;5055801;28;20039;-60
2022/03/06 00:42:41;;;;;;;0.10;0.10;;;;;;;;;;5073996;28;20027;-61
2022/03/06 00:45:06;;;;;;;0.30;0.30;;;;;;;;;;5073717;28;20032;-61
2022/03/06 00:47:32;;;;;;;0.10;0.10;;;;;;;;;;5039375;28;20025;-60
2022/03/06 00:49:59;;;;;;;0.10;0.10;;;;;;;;;;5055421;28;20063;-60
2022/03/06 00:52:26;;;;;;;6.20;5.18;;;;;;;;;;5055803;28;20032;-60
2022/03/06 00:54:51;;;;;;;0.10;0.10;;;;;;;;;;5073651;28;20033;-60
2022/03/06 00:57:17;;;;;;;0.10;0.10;;;;;;;;;;5073778;28;20107;-60
2022/03/06 00:59:42;;;;;;;0.10;0.10;;;;;;;;;;5055612;28;20033;-61
2022/03/06 01:02:08;;;;;;;0.10;0.10;;;;;;;;;;5073580;28;20078;-60
2022/03/06 01:04:34;;;;;;;0.57;0.57;;;;;;;;;;5073678;28;20029;-60
2022/03/06 01:07:00;;;;;;;0.10;0.10;;;;;;;;;;5055620;28;20143;-60
2022/03/06 01:09:26;;;;;;;0.10;0.10;;;;;;;;;;5055624;28;20040;-61
2022/03/06 01:11:52;;;;;;;0.10;0.10;;;;;;;;;;5073170;28;20049;-60
2022/03/06 01:14:18;;;;;;;0.10;0.10;;;;;;;;;;5038942;28;20032;-61
2022/03/06 01:16:44;;;;;;;0.10;0.10;;;;;;;;;;5038835;28;20036;-60
2022/03/06 01:19:09;;;;;;;0.25;0.25;;;;;;;;;;5054037;28;20036;-61
2022/03/06 01:21:35;;;;;;;0.10;0.10;;;;;;;;;;5072116;28;20021;-60
2022/03/06 01:24:00;;;;;;;0.43;0.43;;;;;;;;;;5073355;28;20434;-60
2022/03/06 01:26:26;;;;;;;0.30;0.30;;;;;;;;;;5055288;28;20024;-60
2022/03/06 01:28:51;;;;;;;0.10;0.10;;;;;;;;;;5073461;28;20566;-61
2022/03/06 01:31:17;;;;;;;0.10;0.10;;;;;;;;;;5073108;28;20021;-60
2022/03/06 01:33:42;;;;;;;0.20;0.20;;;;;;;;;;5038899;28;20029;-60
2022/03/06 01:36:08;;;;;;;0.28;0.28;;;;;;;;;;5073492;28;20044;-58
2022/03/06 01:38:33;;;;;;;0.10;0.10;;;;;;;;;;5073430;28;20029;-60
2022/03/06 01:40:59;;;;;;;0.60;0.60;;;;;;;;;;5072674;28;20444;-58
2022/03/06 01:43:24;;;;;;;0.10;0.10;;;;;;;;;;5073212;28;20036;-60
2022/03/06 01:45:50;;;;;;;0.10;0.10;;;;;;;;;;5072865;28;20036;-60
2022/03/06 01:48:15;;;;;;;0.10;0.10;;;;;;;;;;5038579;28;20059;-60
2022/03/06 01:50:41;;;;;;;0.75;0.75;;;;;;;;;;5073070;28;20032;-60
2022/03/06 01:53:08;;;;;;;0.43;0.43;;;;;;;;;;5055041;28;20496;-60
2022/03/06 01:55:34;;;;;;;0.10;0.10;;;;;;;;;;5054986;28;20373;-60
2022/03/06 01:58:01;;;;;;;0.10;0.10;;;;;;;;;;5054851;28;20043;-60
2022/03/06 02:00:29;;;;;;;0.10;0.10;;;;;;;;;;5072563;28;20047;-60
2022/03/06 02:02:54;;;;;;;0.10;0.10;;;;;;;;;;5037616;28;20097;-59
2022/03/06 02:05:20;;;;;;;1.75;1.30;;;;;;;;;;5038358;28;20040;-59
2022/03/06 02:07:46;;;;;;;0.55;0.55;;;;;;;;;;5072839;28;20392;-59
2022/03/06 02:10:13;;;;;;;0.10;0.10;;;;;;;;;;5072481;28;20024;-61
2022/03/06 02:12:39;;;;;;;0.10;0.10;;;;;;;;;;5038103;28;20033;-59
2022/03/06 02:15:07;;;;;;;0.10;0.10;;;;;;;;;;5038195;28;20029;-60
2022/03/06 02:17:32;;;;;;;2.00;1.90;;;;;;;;;;5038179;28;20035;-60
2022/03/06 02:19:59;;;;;;;0.10;0.10;;;;;;;;;;5072496;28;20040;-60
2022/03/06 02:22:26;;;;;;;0.10;0.10;;;;;;;;;;5072477;28;20028;-59
2022/03/06 02:24:52;;;;;;;0.10;0.10;;;;;;;;;;5054453;28;20067;-59
2022/03/06 02:27:18;;;;;;;0.05;0.05;;;;;;;;;;5054576;28;20048;-60
2022/03/06 02:29:43;;;;;;;0.10;0.10;;;;;;;;;;5054206;28;20029;-60
2022/03/06 02:32:10;;;;;;;0.10;0.10;;;;;;;;;;5038052;28;20025;-60
2022/03/06 02:34:40;;;;;;;0.15;0.15;;;;;;;;;;5054582;28;20081;-61
2022/03/06 02:37:06;;;;;;;0.20;0.20;;;;;;;;;;5072479;28;20033;-58
2022/03/06 02:39:31;;;;;;;0.10;0.10;;;;;;;;;;5054431;28;20037;-60
2022/03/06 02:41:58;;;;;;;2.83;2.72;;;;;;;;;;5054031;28;20491;-59
2022/03/06 02:44:24;;;;;;;0.10;0.10;;;;;;;;;;5054114;28;20075;-60
2022/03/06 02:46:50;;;;;;;0.10;0.10;;;;;;;;;;5037639;28;20484;-60
2022/03/06 02:49:17;;;;;;;0.57;0.57;;;;;;;;;;5072229;28;20116;-60
2022/03/06 02:51:44;;;;;;;0.10;0.10;;;;;;;;;;5037747;28;20123;-60
2022/03/06 02:54:11;;;;;;;0.10;0.10;;;;;;;;;;5037737;28;20032;-60
2022/03/06 02:56:36;;;;;;;0.88;0.88;;;;;;;;;;5072418;28;20024;-60
2022/03/06 02:59:02;;;;;;;0.80;0.80;;;;;;;;;;5054101;28;20024;-61
2022/03/06 03:01:28;;;;;;;0.10;0.10;;;;;;;;;;5037691;28;20037;-61
2022/03/06 03:03:53;;;;;;;0.10;0.10;;;;;;;;;;5072108;28;20037;-60
2022/03/06 03:06:19;;;;;;;0.15;0.15;;;;;;;;;;5072136;28;20033;-60
2022/03/06 03:08:46;;;;;;;0.20;0.20;;;;;;;;;;5072085;28;20082;-60
2022/03/06 03:11:12;;;;;;;0.10;0.10;;;;;;;;;;5071616;28;20032;-60
2022/03/06 03:13:38;;;;;;;0.10;0.10;;;;;;;;;;5039393;28;20047;-59
2022/03/06 03:16:04;;;;;;;0.10;0.10;;;;;;;;;;5040905;28;20555;-60
2022/03/06 03:18:33;;;;;;;0.10;0.10;;;;;;;;;;5041039;28;20040;-61
2022/03/06 03:21:01;;;;;;;0.10;0.10;;;;;;;;;;5040787;28;20032;-61
2022/03/06 03:23:27;;;;;;;0.10;0.10;;;;;;;;;;5075283;28;20111;-60
2022/03/06 03:25:53;;;;;;;0.20;0.20;;;;;;;;;;5057196;28;20037;-61
2022/03/06 03:28:18;;;;;;;0.10;0.10;;;;;;;;;;5075014;28;20090;-61
2022/03/06 03:30:44;;;;;;;0.10;0.10;;;;;;;;;;5057390;28;20460;-61
2022/03/06 03:33:09;;;;;;;0.10;0.10;;;;;;;;;;5075159;28;20036;-60
2022/03/06 03:35:35;;;;;;;0.10;0.10;;;;;;;;;;5075342;28;20029;-59
2022/03/06 03:38:00;;;;;;;0.10;0.10;;;;;;;;;;5075210;28;20063;-59
2022/03/06 03:40:26;;;;;;;2.55;2.45;;;;;;;;;;5074701;28;20041;-59
2022/03/06 03:42:51;;;;;;;0.10;0.10;;;;;;;;;;5074934;28;20028;-60
2022/03/06 03:45:17;;;;;;;0.63;0.63;;;;;;;;;;5040372;28;20064;-59
2022/03/06 03:47:42;;;;;;;0.10;0.10;;;;;;;;;;5075034;28;20047;-59
2022/03/06 03:50:08;;;;;;;2.88;2.72;;;;;;;;;;5075075;28;20040;-59
2022/03/06 03:52:33;;;;;;;0.10;0.10;;;;;;;;;;5074833;28;20487;-59
2022/03/06 03:54:59;;;;;;;0.10;0.10;;;;;;;;;;5057212;28;20036;-58
2022/03/06 03:57:24;;;;;;;0.10;0.10;;;;;;;;;;5056725;28;20031;-60
2022/03/06 03:59:50;;;;;;;0.10;0.10;;;;;;;;;;5040131;28;20033;-58
2022/03/06 04:02:16;;;;;;;0.10;0.10;;;;;;;;;;5072667;28;20059;-64
2022/03/06 04:04:41;;;;;;;1.08;1.08;;;;;;;;;;5052433;28;20115;-60
2022/03/06 04:07:07;;;;;;;0.10;0.10;;;;;;;;;;5071227;28;20036;-60
2022/03/06 04:09:33;;;;;;;0.10;0.10;;;;;;;;;;5070913;28;20463;-61
2022/03/06 04:11:59;;;;;;;0.10;0.10;;;;;;;;;;5052309;28;20116;-60
2022/03/06 04:14:24;;;;;;;0.10;0.10;;;;;;;;;;5070488;28;20064;-61
2022/03/06 04:16:50;;;;;;;0.30;0.30;;;;;;;;;;5036313;28;20016;-60
2022/03/06 04:19:15;;;;;;;3.00;1.58;;;;;;;;;;5070707;28;20040;-59
2022/03/06 04:21:41;;;;;;;0.20;0.20;;;;;;;;;;5070774;28;20029;-60
2022/03/06 04:24:07;;;;;;;0.10;0.10;;;;;;;;;;5051761;28;20107;-60
2022/03/06 04:26:33;;;;;;;0.10;0.10;;;;;;;;;;5035549;28;20553;-60
2022/03/06 04:28:58;;;;;;;0.10;0.10;;;;;;;;;;5035852;28;20036;-61
2022/03/06 04:31:24;;;;;;;0.10;0.10;;;;;;;;;;5070675;28;20028;-60
2022/03/06 04:33:49;;;;;;;0.10;0.10;;;;;;;;;;5070824;28;20086;-60
2022/03/06 04:36:15;;;;;;;0.10;0.10;;;;;;;;;;5069599;28;20082;-60
2022/03/06 04:38:41;;;;;;;0.10;0.10;;;;;;;;;;5052152;28;20038;-60
2022/03/06 04:41:06;;;;;;;0.35;0.35;;;;;;;;;;5052168;28;20063;-60
2022/03/06 04:43:32;;;;;;;0.10;0.10;;;;;;;;;;5070069;28;20479;-65
2022/03/06 04:45:57;;;;;;;0.10;0.10;;;;;;;;;;5052301;28;20907;-59
2022/03/06 04:48:23;;;;;;;0.10;0.10;;;;;;;;;;5070009;28;20039;-60
2022/03/06 04:50:48;;;;;;;0.20;0.20;;;;;;;;;;5070124;28;20086;-60
2022/03/06 04:53:14;;;;;;;0.10;0.10;;;;;;;;;;5052256;28;20029;-63
2022/03/06 04:55:39;;;;;;;0.00;0.00;;;;;;;;;;5070149;28;20111;-61
2022/03/06 04:58:05;;;;;;;0.10;0.10;;;;;;;;;;5069974;28;20033;-63
2022/03/06 05:00:31;;;;;;;0.10;0.10;;;;;;;;;;5035627;28;20032;-63
2022/03/06 05:02:56;;;;;;;0.10;0.10;;;;;;;;;;5070330;28;20036;-60
2022/03/06 05:05:22;;;;;;;0.10;0.10;;;;;;;;;;5069749;28;20024;-63
2022/03/06 05:07:48;;;;;;;1.75;1.65;;;;;;;;;;5069988;28;20059;-61
2022/03/06 05:10:15;;;;;;;0.17;0.17;;;;;;;;;;5051626;28;20037;-61
2022/03/06 05:12:41;;;;;;;0.10;0.10;;;;;;;;;;5069784;28;20093;-61
2022/03/06 05:15:08;;;;;;;0.10;0.10;;;;;;;;;;5069832;28;20033;-59
2022/03/06 05:17:33;;;;;;;0.10;0.10;;;;;;;;;;5035096;28;20029;-59
2022/03/06 05:19:59;;;;;;;0.10;0.10;;;;;;;;;;5069702;28;20037;-60
2022/03/06 05:22:24;;;;;;;0.77;0.35;;;;;;;;;;5051666;28;20135;-59
2022/03/06 05:24:49;;;;;;;0.75;0.75;;;;;;;;;;5051675;28;20078;-63
2022/03/06 05:27:15;;;;;;;0.10;0.10;;;;;;;;;;5069896;28;20031;-59
2022/03/06 05:29:40;;;;;;;0.10;0.10;;;;;;;;;;5069791;28;20042;-59
2022/03/06 05:32:06;;;;;;;0.10;0.10;;;;;;;;;;5051517;28;20388;-61
2022/03/06 05:34:31;;;;;;;0.10;0.10;;;;;;;;;;5051719;28;20028;-62
2022/03/06 05:36:57;;;;;;;0.10;0.10;;;;;;;;;;5069336;28;20041;-59
2022/03/06 05:39:22;;;;;;;0.90;0.90;;;;;;;;;;5069385;28;20040;-60
2022/03/06 05:41:48;;;;;;;0.10;0.10;;;;;;;;;;5034406;28;20048;-59
2022/03/06 05:44:13;;;;;;;2.17;1.42;;;;;;;;;;5068709;28;20150;-60
2022/03/06 05:46:39;;;;;;;0.10;0.10;;;;;;;;;;5069492;28;20054;-60
2022/03/06 05:49:12;;;;;;;0.10;0.10;;;;;;;;;;5069184;28;20131;-59
2022/03/06 05:51:41;;;;;;;0.10;0.10;;;;;;;;;;5069403;28;20094;-59
2022/03/06 05:54:07;;;;;;;0.10;0.10;;;;;;;;;;5050981;28;20501;-60
2022/03/06 05:56:33;;;;;;;0.10;0.10;;;;;;;;;;5034397;28;20077;-59
2022/03/06 05:58:59;;;;;;;0.10;0.10;;;;;;;;;;5050720;28;20037;-61
2022/03/06 06:01:24;;;;;;;0.10;0.10;;;;;;;;;;5069276;28;20021;-59
2022/03/06 06:03:49;;;;;;;0.10;0.10;;;;;;;;;;5068931;28;20480;-60
2022/03/06 06:06:15;;;;;;;0.10;0.10;;;;;;;;;;5050667;28;20055;-60
2022/03/06 06:08:41;;;;;;;0.10;0.10;;;;;;;;;;5068991;28;20028;-60
2022/03/06 06:11:07;;;;;;;0.10;0.10;;;;;;;;;;5050672;28;20041;-60
2022/03/06 06:13:33;;;;;;;0.10;0.10;;;;;;;;;;5034580;28;20447;-59
2022/03/06 06:15:58;;;;;;;0.13;0.13;;;;;;;;;;5034345;28;20487;-60
2022/03/06 06:18:26;;;;;;;0.28;0.28;;;;;;;;;;5068594;28;20028;-63
2022/03/06 06:20:52;;;;;;;0.10;0.10;;;;;;;;;;5034062;28;20047;-60
2022/03/06 06:23:18;;;;;;;0.10;0.10;;;;;;;;;;5034095;28;20036;-60
2022/03/06 06:25:44;;;;;;;5.55;2.85;;;;;;;;;;5050608;28;20056;-59
2022/03/06 06:28:10;;;;;;;2.72;1.90;;;;;;;;;;5050262;28;20033;-62
2022/03/06 06:30:35;;;;;;;0.10;0.10;;;;;;;;;;5034321;28;20058;-60
2022/03/06 06:33:00;;;;;;;0.10;0.10;;;;;;;;;;5068640;28;20472;-61
2022/03/06 06:35:26;;;;;;;0.10;0.10;;;;;;;;;;5068388;28;20502;-61
2022/03/06 06:37:51;;;;;;;0.10;0.10;;;;;;;;;;5050925;28;20472;-60
2022/03/06 06:40:17;;;;;;;0.10;0.10;;;;;;;;;;5050282;28;20032;-60
2022/03/06 06:42:42;;;;;;;0.10;0.10;;;;;;;;;;5068520;28;20032;-60
2022/03/06 06:45:08;;;;;;;0.10;0.10;;;;;;;;;;5068139;28;20391;-60
2022/03/06 06:47:33;;;;;;;0.10;0.10;;;;;;;;;;5068003;28;20044;-60
2022/03/06 06:49:59;;;;;;;0.10;0.10;;;;;;;;;;5068596;28;20060;-61
2022/03/06 06:52:25;;;;;;;0.10;0.10;;;;;;;;;;5050105;28;20031;-60
2022/03/06 06:54:50;;;;;;;0.10;0.10;;;;;;;;;;5068158;28;20024;-61
2022/03/06 06:57:16;;;;;;;0.10;0.10;;;;;;;;;;5068219;28;20129;-62
2022/03/06 06:59:41;;;;;;;0.10;0.10;;;;;;;;;;5050048;28;20025;-62
2022/03/06 07:02:07;;;;;;;0.10;0.10;;;;;;;;;;5050400;28;20031;-61
2022/03/06 07:04:32;;;;;;;0.10;0.10;;;;;;;;;;5068121;28;20033;-59
2022/03/06 07:06:57;;;;;;;0.10;0.10;;;;;;;;;;5068089;28;20041;-59
2022/03/06 07:09:23;;;;;;;0.10;0.10;;;;;;;;;;5068241;28;20035;-60
2022/03/06 07:11:48;;;;;;;0.10;0.10;;;;;;;;;;5067728;28;20036;-61
2022/03/06 07:14:14;;;;;;;0.10;0.10;;;;;;;;;;5067714;28;20024;-60
2022/03/06 07:16:39;;;;;;;0.10;0.10;;;;;;;;;;5068179;28;20032;-61
2022/03/06 07:19:05;;;;;;;0.10;0.10;;;;;;;;;;5067933;28;20047;-59
2022/03/06 07:21:30;;;;;;;0.10;0.10;;;;;;;;;;5067946;28;20036;-60
2022/03/06 07:23:56;;;;;;;0.10;0.10;;;;;;;;;;5067764;28;20043;-60
2022/03/06 07:26:21;;;;;;;0.50;0.50;;;;;;;;;;5067725;28;20035;-60
2022/03/06 07:28:47;;;;;;;0.30;0.30;;;;;;;;;;5067713;28;20119;-61
2022/03/06 07:31:12;;;;;;;0.13;0.13;;;;;;;;;;5033678;28;20032;-61
2022/03/06 07:33:38;;;;;;;0.10;0.10;;;;;;;;;;5050243;28;20078;-60
2022/03/06 07:36:05;;;;;;;0.10;0.10;;;;;;;;;;5068142;28;20458;-59
2022/03/06 07:38:30;;;;;;;0.10;0.10;;;;;;;;;;5033005;28;20515;-59
2022/03/06 07:40:56;;;;;;;0.10;0.10;;;;;;;;;;5067239;28;20036;-61
2022/03/06 07:43:21;;;;;;;0.10;0.10;;;;;;;;;;5067532;28;20476;-62
2022/03/06 07:45:46;;;;;;;0.10;0.10;;;;;;;;;;5050036;28;20552;-59
2022/03/06 07:48:12;;;;;;;1.65;1.55;;;;;;;;;;5049584;28;20036;-60
2022/03/06 07:50:37;;;;;;;0.10;0.10;;;;;;;;;;5067585;28;20037;-60
2022/03/06 07:53:03;;;;;;;0.10;0.10;;;;;;;;;;5067650;28;20032;-60
2022/03/06 07:55:29;;;;;;;0.10;0.10;;;;;;;;;;5067555;28;20400;-59
2022/03/06 07:57:54;;;;;;;0.10;0.10;;;;;;;;;;5067275;28;20064;-63
2022/03/06 08:00:20;;;;;;;0.10;0.10;;;;;;;;;;5034206;28;20037;-61
2022/03/06 08:02:45;;;;;;;0.10;0.10;;;;;;;;;;5073986;28;20035;-62
2022/03/06 08:05:10;;;;;;;0.10;0.10;;;;;;;;;;5069627;28;20400;-61
2022/03/06 08:07:36;;;;;;;0.10;0.10;;;;;;;;;;5070888;28;20381;-61
2022/03/06 08:10:04;;;;;;;0.10;0.10;;;;;;;;;;5070881;28;20032;-60
2022/03/06 08:12:29;;;;;;;0.10;0.10;;;;;;;;;;5070160;28;20491;-61
2022/03/06 08:14:55;;;;;;;1.10;1.10;;;;;;;;;;5070594;28;20041;-62
2022/03/06 08:17:21;;;;;;;0.10;0.10;;;;;;;;;;5070969;28;20368;-61
2022/03/06 08:19:47;;;;;;;0.20;0.20;;;;;;;;;;5069835;28;20025;-61
2022/03/06 08:22:12;;;;;;;0.10;0.10;;;;;;;;;;5069175;28;20120;-62
2022/03/06 08:24:38;;;;;;;0.10;0.10;;;;;;;;;;5069147;28;20036;-61
2022/03/06 08:27:04;;;;;;;0.10;0.10;;;;;;;;;;5070625;28;20024;-62
2022/03/06 08:29:29;;;;;;;2.95;1.27;;;;;;;;;;5070069;28;20119;-62
2022/03/06 08:31:55;;;;;;;0.20;0.20;;;;;;;;;;5070256;28;20033;-62
2022/03/06 08:34:20;;;;;;;0.10;0.10;;;;;;;;;;5069320;28;20039;-62
2022/03/06 08:36:46;;;;;;;0.15;0.15;;;;;;;;;;5070224;28;20032;-61
2022/03/06 08:39:11;;;;;;;0.20;0.20;;;;;;;;;;5068216;28;20032;-62
2022/03/06 08:41:37;;;;;;;0.10;0.10;;;;;;;;;;5069694;28;20037;-61
2022/03/06 08:44:02;;;;;;;0.90;0.90;;;;;;;;;;5069471;28;20076;-61
2022/03/06 08:46:28;;;;;;;0.30;0.30;;;;;;;;;;5071809;28;20020;-61
2022/03/06 08:48:53;;;;;;;0.20;0.20;;;;;;;;;;5074859;28;20078;-61
2022/03/06 08:51:19;;;;;;;0.10;0.10;;;;;;;;;;5066460;28;20024;-61
2022/03/06 08:53:44;;;;;;;0.15;0.15;;;;;;;;;;5060633;28;20088;-62
2022/03/06 08:56:10;;;;;;;0.82;0.82;;;;;;;;;;5084683;28;20035;-61
2022/03/06 08:58:35;;;;;;;0.20;0.20;;;;;;;;;;5070503;28;20032;-62
2022/03/06 09:01:01;;;;;;;0.20;0.20;;;;;;;;;;5088148;28;20479;-61
2022/03/06 09:03:26;;;;;;;0.10;0.10;;;;;;;;;;5087390;28;20044;-61
2022/03/06 09:05:52;;;;;;;0.30;0.30;;;;;;;;;;5086526;28;20044;-62
2022/03/06 09:08:17;;;;;;;0.77;0.77;;;;;;;;;;5081286;28;20028;-62
2022/03/06 09:10:43;;;;;;;0.43;0.43;;;;;;;;;;5069387;28;20040;-61
2022/03/06 09:13:08;;;;;;;0.10;0.10;;;;;;;;;;5068065;28;20544;-62
2022/03/06 09:15:35;;;;;;;0.10;0.10;;;;;;;;;;5069818;28;20024;-62
2022/03/06 09:18:01;;;;;;;0.15;0.15;;;;;;;;;;5070450;28;20167;-61
2022/03/06 09:20:26;;;;;;;0.10;0.10;;;;;;;;;;5069261;28;20101;-62
2022/03/06 09:22:52;;;;;;;0.63;0.63;;;;;;;;;;5069394;28;20024;-62
2022/03/06 09:25:18;;;;;;;0.30;0.30;;;;;;;;;;5051375;28;20538;-61
2022/03/06 09:27:43;;;;;;;1.17;1.10;;;;;;;;;;5068169;28;20123;-64
2022/03/06 09:30:09;;;;;;;10.70;2.70;;;;;;;;;;5067521;28;20025;-63
2022/03/06 09:32:35;;;;;;;3.70;2.15;;;;;;;;;;5069385;28;20052;-65
2022/03/06 09:35:01;;;;;;;0.65;0.65;;;;;;;;;;5034999;28;20076;-63
2022/03/06 09:37:26;;;;;;;0.20;0.20;;;;;;;;;;5069517;28;20017;-64
2022/03/06 09:39:52;;;;;;;2.10;0.90;;;;;;;;;;5069249;28;20040;-63
2022/03/06 09:42:18;;;;;;;0.50;0.50;;;;;;;;;;5067502;28;20055;-64
2022/03/06 09:44:45;;;;;;;0.20;0.20;;;;;;;;;;5066996;28;20142;-64
2022/03/06 09:47:11;;;;;;;0.15;0.15;;;;;;;;;;5067065;28;20438;-64
2022/03/06 09:49:37;;;;;;;0.20;0.20;;;;;;;;;;5066797;28;20032;-63
2022/03/06 09:52:02;;;;;;;0.20;0.20;;;;;;;;;;5066809;28;20062;-64
2022/03/06 09:54:29;;;;;;;0.82;0.82;;;;;;;;;;5066351;28;20782;-63
2022/03/06 09:56:54;;;;;;;1.17;1.08;;;;;;;;;;5067470;28;20024;-64
2022/03/06 09:59:20;;;;;;;0.30;0.30;;;;;;;;;;5050810;28;20361;-64
2022/03/06 10:01:46;;;;;;;0.30;0.30;;;;;;;;;;5069377;28;20079;-64
2022/03/06 10:04:23;;;;;;;0.30;0.30;;;;;;;;;;5068790;28;20044;-64
2022/03/06 10:07:04;;;;;;;0.52;0.52;;;;;;;;;;5069058;28;20028;-64
2022/03/06 10:09:31;;;;;;;0.63;0.55;;;;;;;;;;5069127;28;20033;-66
2022/03/06 10:11:56;;;;;;;0.20;0.20;;;;;;;;;;5068782;28;20408;-64
2022/03/06 10:14:33;;;;;;;0.30;0.30;;;;;;;;;;5068607;28;20029;-65
2022/03/06 10:17:15;;;;;;;0.30;0.30;;;;;;;;;;5068919;28;20496;-64
2022/03/06 10:19:46;;;;;;;0.45;0.45;;;;;;;;;;5068779;28;20035;-64
2022/03/06 10:22:12;;;;;;;0.50;0.50;;;;;;;;;;5067672;28;20041;-64
2022/03/06 10:24:51;;;;;;;1.60;1.45;;;;;;;;;;5069402;28;20051;-64
2022/03/06 10:27:36;;;;;;;0.45;0.45;;;;;;;;;;5068508;28;20055;-63
2022/03/06 10:30:02;;;;;;;0.47;0.47;;;;;;;;;;5068753;28;20036;-64
2022/03/06 10:32:41;;;;;;;1.50;1.42;;;;;;;;;;5068145;28;20040;-65
2022/03/06 10:35:06;;;;;;;0.28;0.28;;;;;;;;;;5069077;28;20040;-64
2022/03/06 10:37:32;;;;;;;0.20;0.20;;;;;;;;;;5068848;28;20430;-64
2022/03/06 10:39:57;;;;;;;0.38;0.38;;;;;;;;;;5068648;28;20743;-63
2022/03/06 10:42:23;;;;;;;0.30;0.30;;;;;;;;;;5068378;28;20464;-65
2022/03/06 10:44:48;;;;;;;0.20;0.20;;;;;;;;;;5068699;28;20430;-65
2022/03/06 10:47:14;;;;;;;1.73;1.63;;;;;;;;;;5068485;28;20039;-64
2022/03/06 10:49:39;;;;;;;2.42;2.20;;;;;;;;;;5068598;28;20491;-64
2022/03/06 10:52:15;;;;;;;0.38;0.38;;;;;;;;;;5050890;28;20041;-64
2022/03/06 10:54:47;;;;;;;0.30;0.30;;;;;;;;;;5068493;28;20098;-63
2022/03/06 10:57:13;;;;;;;0.35;0.35;;;;;;;;;;5068499;28;20036;-64
2022/03/06 10:59:40;;;;;;;0.43;0.43;;;;;;;;;;5068355;28;20399;-65
2022/03/06 11:02:07;;;;;;;0.40;0.40;;;;;;;;;;5068101;28;20029;-65
2022/03/06 11:04:33;;;;;;;0.77;0.77;;;;;;;;;;5068280;28;20037;-65
2022/03/06 11:06:58;;;;;;;0.25;0.25;;;;;;;;;;5068622;28;20047;-65
2022/03/06 11:09:24;;;;;;;0.20;0.20;;;;;;;;;;5068049;28;20063;-64
2022/03/06 11:11:53;;;;;;;0.20;0.20;;;;;;;;;;5068489;28;20476;-64
2022/03/06 11:14:18;;;;;;;1.17;1.17;;;;;;;;;;5068149;28;20040;-64
2022/03/06 11:16:44;;;;;;;0.40;0.40;;;;;;;;;;5068227;28;20029;-64
2022/03/06 11:19:10;;;;;;;0.20;0.20;;;;;;;;;;5068411;28;20036;-63
2022/03/06 11:21:37;;;;;;;0.43;0.43;;;;;;;;;;5050255;28;20029;-63
2022/03/06 11:24:08;;;;;;;0.50;0.50;;;;;;;;;;5068088;28;20020;-62
2022/03/06 11:26:34;;;;;;;0.17;0.17;;;;;;;;;;5068010;28;20059;-63
2022/03/06 11:29:12;;;;;;;3.55;2.17;;;;;;;;;;5068030;28;20491;-63
2022/03/06 11:31:47;;;;;;;0.68;0.68;;;;;;;;;;5068000;28;20040;-63
2022/03/06 11:34:23;;;;;;;0.20;0.20;;;;;;;;;;5069428;28;20044;-62
2022/03/06 11:36:49;;;;;;;0.43;0.43;;;;;;;;;;5071545;28;20036;-64
2022/03/06 11:39:34;;;;;;;0.38;0.32;;;;;;;;;;5071616;28;20027;-62
2022/03/06 11:42:03;;;;;;;0.20;0.20;;;;;;;;;;5071285;28;20055;-63
2022/03/06 11:44:35;;;;;;;0.40;0.40;;;;;;;;;;5071141;28;20036;-63
2022/03/06 11:47:13;;;;;;;2.38;2.17;;;;;;;;;;5071655;28;20037;-63
2022/03/06 11:49:39;;;;;;;1.88;1.00;;;;;;;;;;5071172;28;20077;-64
2022/03/06 11:52:34;;;;;;;8.50;5.00;;;;;;;;;;5071076;28;20081;-62
2022/03/06 11:54:59;;;;;;;2.35;1.45;;;;;;;;;;5054141;28;20052;-62
2022/03/06 11:57:38;;;;;;;0.30;0.30;;;;;;;;;;5071030;28;20081;-63
2022/03/06 12:00:33;;;;;;;6.25;3.78;;;;;;;;;;5071148;28;20102;-64
2022/03/06 12:02:59;;;;;;;0.28;0.28;;;;;;;;;;5054165;28;20114;-62
2022/03/06 12:05:44;;;;;;;0.47;0.47;;;;;;;;;;5070860;28;20036;-63
2022/03/06 12:08:10;;;;;;;5.90;4.13;;;;;;;;;;5070945;28;20124;-63
2022/03/06 12:10:36;;;;;;;0.52;0.43;;;;;;;;;;5071481;28;20024;-63
2022/03/06 12:13:02;;;;;;;0.80;0.57;;;;;;;;;;5070647;28;20396;-63
2022/03/06 12:15:28;;;;;;;0.50;0.50;;;;;;;;;;5070744;28;20052;-63
2022/03/06 12:18:01;;;;;;;0.80;0.80;;;;;;;;;;5071315;28;20040;-63
2022/03/06 12:20:28;;;;;;;6.93;4.50;;;;;;;;;;5070740;28;20029;-63
2022/03/06 12:22:57;;;;;;;2.45;1.85;;;;;;;;;;5071214;28;20078;-63
2022/03/06 12:25:29;;;;;;;9.68;6.35;;;;;;;;;;5070839;28;20037;-63
2022/03/06 12:28:00;;;;;;;0.10;0.10;;;;;;;;;;5070382;28;20032;-62
2022/03/06 12:30:26;;;;;;;1.55;1.05;;;;;;;;;;5070395;28;20056;-65
2022/03/06 12:32:51;;;;;;;0.93;0.93;;;;;;;;;;5070904;28;20484;-65
2022/03/06 12:35:17;;;;;;;0.20;0.20;;;;;;;;;;5070814;28;20387;-64
2022/03/06 12:37:50;;;;;;;0.32;0.32;;;;;;;;;;5070628;28;20040;-63
2022/03/06 12:40:18;;;;;;;0.63;0.63;;;;;;;;;;5069968;28;20086;-64
2022/03/06 12:42:44;;;;;;;0.80;0.80;;;;;;;;;;5070635;28;20122;-64
2022/03/06 12:45:14;;;;;;;1.60;1.45;;;;;;;;;;5069421;28;20036;-64
2022/03/06 12:47:41;;;;;;;0.45;0.45;;;;;;;;;;5070458;28;20029;-63
2022/03/06 12:50:08;;;;;;;1.77;1.23;;;;;;;;;;5069972;28;20380;-64
2022/03/06 12:52:34;;;;;;;0.95;0.95;;;;;;;;;;5070831;28;20043;-64
2022/03/06 12:55:01;;;;;;;1.08;1.02;;;;;;;;;;5070216;28;20028;-63
2022/03/06 12:57:31;;;;;;;0.75;0.75;;;;;;;;;;5070163;28;20054;-63
2022/03/06 12:59:56;;;;;;;;;;;;;;;;;;5070631;28;20032;-63
2022/03/06 13:02:22;;;;;;;0.30;0.30;;;;;;;;;;5070034;28;19919;-63
2022/03/06 13:04:51;;;;;;;1.83;1.05;;;;;;;;;;5069840;28;20123;-63
2022/03/06 13:07:17;;;;;;;;;;;;;;;;;;5070520;28;20188;-64
2022/03/06 13:09:42;;;;;;;0.40;0.40;;;;;;;;;;5070205;28;20010;-63
2022/03/06 13:12:08;;;;;;;1.73;1.60;;;;;;;;;;5069566;28;20267;-64
2022/03/06 13:14:37;;;;;;;2.67;1.58;;;;;;;;;;5052154;28;20450;-62
2022/03/06 13:17:02;;;;;;;;;;;;;;;;;;5070630;28;20032;-63
2022/03/06 13:19:43;;;;;;;0.60;0.60;;;;;;;;;;5069850;28;20406;-62
2022/03/06 13:22:10;;;;;;;0.22;0.22;;;;;;;;;;5069392;28;20040;-63
2022/03/06 13:24:39;;;;;;;0.40;0.40;;;;;;;;;;5062898;28;20104;-62
2022/03/06 13:27:05;;;;;;;0.30;0.30;;;;;;;;;;5049794;28;20029;-64
2022/03/06 13:29:31;;;;;;;0.70;0.70;;;;;;;;;;5032504;28;20043;-63
2022/03/06 13:31:56;;;;;;;0.20;0.20;;;;;;;;;;5031360;28;20067;-62
2022/03/06 13:34:22;;;;;;;0.75;0.63;;;;;;;;;;5049331;28;20033;-65
2022/03/06 13:36:47;;;;;;;1.00;0.95;;;;;;;;;;5049583;28;20086;-63
2022/03/06 13:39:15;;;;;;;0.32;0.32;;;;;;;;;;5049418;28;20021;-64
2022/03/06 13:41:58;;;;;;;0.32;0.32;;;;;;;;;;5049431;28;20111;-64
2022/03/06 13:44:25;;;;;;;1.48;1.27;;;;;;;;;;5049103;28;20043;-65
2022/03/06 13:46:52;;;;;;;0.63;0.63;;;;;;;;;;5049377;28;20469;-64
2022/03/06 13:49:19;;;;;;;0.20;0.20;;;;;;;;;;5031519;28;20041;-63
2022/03/06 13:51:44;;;;;;;0.20;0.20;;;;;;;;;;5049289;28;20043;-64
2022/03/06 13:54:10;;;;;;;1.67;1.58;;;;;;;;;;5049392;28;20032;-65
2022/03/06 13:56:37;;;;;;;1.65;0.95;;;;;;;;;;5049287;28;20041;-64
2022/03/06 13:59:04;;;;;;;0.40;0.40;;;;;;;;;;5049561;28;20059;-64
2022/03/06 14:01:29;;;;;;;0.20;0.20;;;;;;;;;;5049116;28;20068;-64
2022/03/06 14:03:59;;;;;;;0.75;0.75;;;;;;;;;;5049241;28;20064;-64
2022/03/06 14:06:24;;;;;;;;;;;;;;;;;;5049582;28;20029;-64
2022/03/06 14:08:50;;;;;;;0.68;0.68;;;;;;;;;;5048148;28;19913;-64
2022/03/06 14:11:29;;;;;;;0.20;0.20;;;;;;;;;;5049047;28;20036;-65
2022/03/06 14:13:56;;;;;;;0.20;0.20;;;;;;;;;;5048939;28;20472;-65
2022/03/06 14:16:21;;;;;;;2.10;1.02;;;;;;;;;;5048707;28;20033;-65
2022/03/06 14:18:51;;;;;;;1.30;1.08;;;;;;;;;;5048879;28;20078;-65
2022/03/06 14:21:22;;;;;;;0.70;0.70;;;;;;;;;;5048826;28;20041;-64
2022/03/06 14:23:51;;;;;;;2.40;1.00;;;;;;;;;;5048741;28;20052;-65
2022/03/06 14:26:20;;;;;;;0.60;0.60;;;;;;;;;;5048443;28;20056;-63
2022/03/06 14:28:51;;;;;;;0.20;0.20;;;;;;;;;;5048724;28;20135;-64
2022/03/06 14:31:16;;;;;;;0.50;0.50;;;;;;;;;;5048678;28;20092;-62
2022/03/06 14:33:41;;;;;;;0.20;0.20;;;;;;;;;;5048560;28;20504;-64
2022/03/06 14:36:07;;;;;;;2.42;1.67;;;;;;;;;;5048701;28;20083;-64
2022/03/06 14:38:32;;;;;;;0.20;0.20;;;;;;;;;;5048684;28;20024;-63
2022/03/06 14:40:58;;;;;;;0.13;0.13;;;;;;;;;;5048500;28;20163;-63